Terminal Aerodrome Forecast
Issued by NWS

Home | Current Version | Previous Version | Text Only | Print | Product List | Glossary On
Versions: 1 2 3 4 5 6 7 8 9 10 11 12 13 14
000
FTUS45 KTFX 012300
TAFLWT
TAF
KLWT 012332Z 0200/0224 10005KT P6SM BKN120
     FM020200 21010KT P6SM VCSH SCT025 OVC040
     FM020900 23007KT 2SM -SN BR OVC015
     FM021800 28005KT P6SM SCT030 BKN070=

USA.gov is the U.S. government's official web portal to all federal, state and local government web resources and services.